createdAt,value
2022-08-27T00:00:53.238Z,2.83
2022-08-27T00:03:23.059Z,1.92
2022-08-27T00:05:52.929Z,2.72
2022-08-27T00:08:25.494Z,2.30
2022-08-27T00:10:55.291Z,3.20
2022-08-27T00:13:25.064Z,3.92
2022-08-27T00:15:54.835Z,1.80
2022-08-27T00:18:24.631Z,3.03
2022-08-27T00:20:54.387Z,2.00
2022-08-27T00:23:26.942Z,4.28
2022-08-27T00:25:56.824Z,2.67
2022-08-27T00:28:29.125Z,2.53
2022-08-27T00:30:59.820Z,1.92
2022-08-27T00:33:31.736Z,1.42
2022-08-27T00:36:01.599Z,2.25
2022-08-27T00:38:34.418Z,1.73
2022-08-27T00:41:04.185Z,2.53
2022-08-27T00:43:48.681Z,2.38
2022-08-27T00:46:24.685Z,2.67
2022-08-27T00:48:56.957Z,3.10
2022-08-27T00:51:28.132Z,2.58
2022-08-27T00:54:02.717Z,1.83
2022-08-27T00:56:37.624Z,4.25
2022-08-27T00:59:08.079Z,2.95
2022-08-27T01:01:58.371Z,2.03
2022-08-27T01:04:28.187Z,2.92
2022-08-27T01:06:58.470Z,2.78
2022-08-27T01:09:31.510Z,2.28
2022-08-27T01:12:01.938Z,2.72
2022-08-27T01:14:32.157Z,2.10
2022-08-27T01:17:05.434Z,1.88
2022-08-27T01:19:41.935Z,2.50
2022-08-27T01:22:20.416Z,2.30
2022-08-27T01:24:58.699Z,4.20
2022-08-27T01:27:31.527Z,2.47
2022-08-27T01:30:01.752Z,3.75
2022-08-27T01:32:36.624Z,2.53
2022-08-27T01:35:09.755Z,2.35
2022-08-27T01:37:40.821Z,1.92
2022-08-27T01:40:14.286Z,3.75
2022-08-27T01:42:49.534Z,2.13
2022-08-27T01:45:25.795Z,2.05
2022-08-27T01:47:55.983Z,2.75
2022-08-27T01:50:29.524Z,2.15
2022-08-27T01:52:59.639Z,2.13
2022-08-27T01:55:32.032Z,2.88
2022-08-27T01:58:01.817Z,2.13
2022-08-27T02:00:34.956Z,1.20
2022-08-27T02:03:06.086Z,4.07
2022-08-27T02:05:44.745Z,1.85
2022-08-27T02:08:16.087Z,2.35
2022-08-27T02:10:50.379Z,5.47
2022-08-27T02:13:21.187Z,3.75
2022-08-27T02:15:51.082Z,4.15
2022-08-27T02:18:21.186Z,2.97
2022-08-27T02:20:51.729Z,3.50
2022-08-27T02:23:21.995Z,4.10
2022-08-27T02:25:54.369Z,2.95
2022-08-27T02:28:24.166Z,3.00
2022-08-27T02:30:53.903Z,2.60
2022-08-27T02:33:23.660Z,2.70
2022-08-27T02:35:53.420Z,1.77
2022-08-27T02:38:25.774Z,3.45
2022-08-27T02:40:59.056Z,3.88
2022-08-27T02:43:28.843Z,2.13
2022-08-27T02:45:58.583Z,3.72
2022-08-27T02:48:28.423Z,4.05
2022-08-27T02:50:58.245Z,3.80
2022-08-27T02:53:28.684Z,2.55
2022-08-27T02:56:01.483Z,2.60
2022-08-27T02:58:31.283Z,2.72
2022-08-27T03:01:01.358Z,2.35
2022-08-27T03:03:31.747Z,2.75
2022-08-27T03:06:01.951Z,2.47
2022-08-27T03:08:32.539Z,5.47
2022-08-27T03:11:25.808Z,4.63
2022-08-27T03:13:56.175Z,3.30
2022-08-27T03:16:26.080Z,2.65
2022-08-27T03:18:53.412Z,1.92
2022-08-27T03:21:26.556Z,2.22
2022-08-27T03:23:57.128Z,3.17
2022-08-27T03:26:30.628Z,2.10
2022-08-27T03:29:01.381Z,2.63
2022-08-27T03:31:31.467Z,1.90
2022-08-27T03:34:03.951Z,2.08
2022-08-27T03:36:34.413Z,2.42
2022-08-27T03:39:04.231Z,5.07
2022-08-27T03:41:43.859Z,3.42
2022-08-27T03:44:25.089Z,4.10
2022-08-27T03:46:55.465Z,2.40
2022-08-27T03:49:26.183Z,2.00
2022-08-27T03:51:56.506Z,2.13
2022-08-27T03:54:26.351Z,1.58
2022-08-27T03:56:58.715Z,4.53
2022-08-27T03:59:28.470Z,4.93
2022-08-27T04:01:58.314Z,1.55
2022-08-27T04:04:28.674Z,2.95
2022-08-27T04:06:59.066Z,2.20
2022-08-27T04:09:29.299Z,1.77
2022-08-27T04:12:01.756Z,3.88
2022-08-27T04:14:31.543Z,4.10
2022-08-27T04:17:01.392Z,2.70
2022-08-27T04:19:33.332Z,1.88
2022-08-27T04:22:04.632Z,2.85
2022-08-27T04:24:36.302Z,2.33
2022-08-27T04:27:09.336Z,2.80
2022-08-27T04:29:39.090Z,3.42
2022-08-27T04:32:10.122Z,4.28
2022-08-27T04:34:39.961Z,3.15
2022-08-27T04:37:10.074Z,2.85
2022-08-27T04:39:39.868Z,3.33
2022-08-27T04:42:12.333Z,2.92
2022-08-27T04:44:42.140Z,1.92
2022-08-27T04:47:11.893Z,8.45
2022-08-27T04:49:42.117Z,4.07
2022-08-27T04:52:12.143Z,2.92
2022-08-27T04:54:42.254Z,3.83
2022-08-27T04:57:14.648Z,4.55
2022-08-27T04:59:44.441Z,2.28
2022-08-27T05:02:14.640Z,2.45
2022-08-27T05:04:46.223Z,4.82
2022-08-27T05:07:16.056Z,2.83
2022-08-27T05:09:45.817Z,1.95
2022-08-27T05:12:18.166Z,4.07
2022-08-27T05:14:47.951Z,2.47
2022-08-27T05:17:17.709Z,3.08
2022-08-27T05:19:47.464Z,3.85
2022-08-27T05:22:17.252Z,2.38
2022-08-27T05:24:50.221Z,3.35
2022-08-27T05:27:22.824Z,2.95
2022-08-27T05:29:52.564Z,3.70
2022-08-27T05:32:22.295Z,2.88
2022-08-27T05:34:52.049Z,3.03
2022-08-27T05:37:22.135Z,3.60
2022-08-27T05:39:51.988Z,5.13
2022-08-27T05:42:24.409Z,2.90
2022-08-27T05:44:54.401Z,2.83
2022-08-27T05:47:24.278Z,2.90
2022-08-27T05:49:54.995Z,3.28
2022-08-27T05:52:24.825Z,2.13
2022-08-27T05:54:55.190Z,3.55
2022-08-27T05:57:27.535Z,3.25
2022-08-27T06:00:09.735Z,2.55
2022-08-27T06:02:46.268Z,4.90
2022-08-27T06:05:16.093Z,3.45
2022-08-27T06:07:45.885Z,3.95
2022-08-27T06:10:16.342Z,3.30
2022-08-27T06:12:48.905Z,4.00
2022-08-27T06:15:18.711Z,5.10
2022-08-27T06:17:48.502Z,5.50
2022-08-27T06:20:20.792Z,3.38
2022-08-27T06:22:50.563Z,4.75
2022-08-27T06:25:20.481Z,4.15
2022-08-27T06:27:52.983Z,4.93
2022-08-27T06:30:22.788Z,4.13
2022-08-27T06:32:52.683Z,4.95
2022-08-27T06:35:22.574Z,4.53
2022-08-27T06:37:53.410Z,3.58
2022-08-27T06:40:23.424Z,7.20
2022-08-27T06:42:55.958Z,4.82
2022-08-27T06:45:25.762Z,3.78
2022-08-27T06:47:56.063Z,3.38
2022-08-27T06:50:27.493Z,3.70
2022-08-27T06:52:57.342Z,5.93
2022-08-27T06:55:27.120Z,3.92
2022-08-27T06:57:59.506Z,6.10
2022-08-27T07:00:29.311Z,7.32
2022-08-27T07:02:59.154Z,5.13
2022-08-27T07:05:29.619Z,5.55
2022-08-27T07:07:59.400Z,4.03
2022-08-27T07:10:30.191Z,5.97
2022-08-27T07:13:03.083Z,5.65
2022-08-27T07:15:33.093Z,8.65
2022-08-27T07:18:05.003Z,4.03
2022-08-27T07:20:35.475Z,6.22
2022-08-27T07:23:09.379Z,6.07
2022-08-27T07:25:44.287Z,4.85
2022-08-27T07:28:16.667Z,5.13
2022-08-27T07:30:46.791Z,4.88
2022-08-27T07:33:16.653Z,5.15
2022-08-27T07:35:49.135Z,8.30
2022-08-27T07:38:20.020Z,6.47
2022-08-27T07:40:49.810Z,4.85
2022-08-27T07:43:34.728Z,5.65
2022-08-27T07:46:05.684Z,5.45
2022-08-27T07:48:36.480Z,3.17
2022-08-27T07:51:08.672Z,4.38
2022-08-27T07:53:38.519Z,5.75
2022-08-27T07:56:09.494Z,3.53
2022-08-27T07:58:42.818Z,6.10
2022-08-27T08:01:13.868Z,8.07
2022-08-27T08:03:44.516Z,4.45
2022-08-27T08:06:18.119Z,3.88
2022-08-27T08:08:48.175Z,4.30
2022-08-27T08:11:20.678Z,5.00
2022-08-27T08:13:53.161Z,6.93
2022-08-27T08:16:23.112Z,7.45
2022-08-27T08:18:52.916Z,6.38
2022-08-27T08:21:22.994Z,4.70
2022-08-27T08:23:52.884Z,5.18
2022-08-27T08:26:23.267Z,3.08
2022-08-27T08:28:55.668Z,4.03
2022-08-27T08:31:27.534Z,3.17
2022-08-27T08:33:57.375Z,4.38
2022-08-27T08:36:27.151Z,3.78
2022-08-27T08:38:57.219Z,4.97
2022-08-27T08:41:41.647Z,4.93
2022-08-27T08:44:19.806Z,6.00
2022-08-27T08:46:55.982Z,5.78
2022-08-27T08:49:52.697Z,4.53
2022-08-27T08:52:32.279Z,6.05
2022-08-27T08:55:13.191Z,6.43
2022-08-27T08:57:51.695Z,2.67
2022-08-27T09:00:24.482Z,5.65
2022-08-27T09:02:57.503Z,2.95
2022-08-27T09:05:28.219Z,3.45
2022-08-27T09:08:29.208Z,6.20
2022-08-27T09:11:01.861Z,5.28
2022-08-27T09:13:35.939Z,3.30
2022-08-27T09:16:09.324Z,4.15
2022-08-27T09:18:42.541Z,5.80
2022-08-27T09:21:27.986Z,7.28
2022-08-27T09:24:07.031Z,5.30
2022-08-27T09:26:39.582Z,4.28
2022-08-27T09:29:22.086Z,3.67
2022-08-27T09:31:58.851Z,3.85
2022-08-27T09:34:30.479Z,3.53
2022-08-27T09:37:09.168Z,4.38
2022-08-27T09:39:47.311Z,3.67
2022-08-27T09:42:30.420Z,3.78
2022-08-27T09:45:00.950Z,6.15
2022-08-27T09:47:33.310Z,4.13
2022-08-27T09:50:10.750Z,5.20
2022-08-27T09:52:55.216Z,3.70
2022-08-27T09:55:46.880Z,4.00
2022-08-27T09:58:21.992Z,2.65
2022-08-27T10:01:01.175Z,2.83
2022-08-27T10:03:33.965Z,4.88
2022-08-27T10:06:03.794Z,1.88
2022-08-27T10:08:41.279Z,4.15
2022-08-27T10:11:17.573Z,6.70
2022-08-27T10:13:54.774Z,4.93
2022-08-27T10:16:44.634Z,3.30
2022-08-27T10:19:28.468Z,5.38
2022-08-27T10:22:07.830Z,3.38
2022-08-27T10:24:50.828Z,5.57
2022-08-27T10:27:30.397Z,3.28
2022-08-27T10:30:07.652Z,5.72
2022-08-27T10:33:03.993Z,3.85
2022-08-27T10:35:47.818Z,5.70
2022-08-27T10:38:26.439Z,3.03
2022-08-27T10:41:03.259Z,4.85
2022-08-27T10:44:01.375Z,6.97
2022-08-27T10:46:50.953Z,4.80
2022-08-27T10:49:29.574Z,4.70
2022-08-27T10:52:16.984Z,7.35
2022-08-27T10:54:52.450Z,3.95
2022-08-27T10:57:51.738Z,5.97
2022-08-27T11:00:22.633Z,4.40
2022-08-27T11:02:57.293Z,4.20
2022-08-27T11:05:31.978Z,5.40
2022-08-27T11:08:12.849Z,4.30
2022-08-27T11:10:48.749Z,4.15
2022-08-27T11:13:24.290Z,7.85
2022-08-27T11:15:57.724Z,3.08
2022-08-27T11:18:43.202Z,2.88
2022-08-27T11:21:17.482Z,3.47
2022-08-27T11:23:55.424Z,3.63
2022-08-27T11:26:25.212Z,4.07
2022-08-27T11:28:58.365Z,3.78
2022-08-27T11:31:35.917Z,4.07
2022-08-27T11:34:13.139Z,5.95
2022-08-27T11:37:02.882Z,5.63
2022-08-27T11:39:51.979Z,7.70
2022-08-27T11:42:36.390Z,5.75
2022-08-27T11:45:11.323Z,3.38
2022-08-27T11:47:41.249Z,4.70
2022-08-27T11:50:21.116Z,6.88
2022-08-27T11:53:00.983Z,3.17
2022-08-27T11:55:37.090Z,4.68
2022-08-27T11:58:14.100Z,4.78
2022-08-27T12:00:45.874Z,3.28
2022-08-27T12:03:28.935Z,2.83
2022-08-27T12:06:20.703Z,4.63
2022-08-27T12:08:50.550Z,3.22
2022-08-27T12:11:45.009Z,4.35
2022-08-27T12:14:32.503Z,4.70
2022-08-27T12:17:10.121Z,5.10
2022-08-27T12:19:52.271Z,6.53
2022-08-27T12:22:59.560Z,6.13
2022-08-27T12:25:30.450Z,3.72
2022-08-27T12:28:06.138Z,3.55
2022-08-27T12:30:38.405Z,5.18
2022-08-27T12:33:15.581Z,5.20
2022-08-27T12:35:50.180Z,4.25
2022-08-27T12:38:23.076Z,2.55
2022-08-27T12:40:57.867Z,3.60
2022-08-27T12:43:33.585Z,4.57
2022-08-27T12:46:06.060Z,3.83
2022-08-27T12:48:39.764Z,3.55
2022-08-27T12:51:16.095Z,5.68
2022-08-27T12:53:48.007Z,3.92
2022-08-27T12:56:54.283Z,6.97
2022-08-27T12:59:46.404Z,2.70
2022-08-27T13:02:31.376Z,5.75
2022-08-27T13:05:10.108Z,3.20
2022-08-27T13:07:44.402Z,4.43
2022-08-27T13:10:17.438Z,3.47
2022-08-27T13:12:48.727Z,4.72
2022-08-27T13:15:22.639Z,3.72
2022-08-27T13:17:52.883Z,3.88
2022-08-27T13:20:26.830Z,3.88
2022-08-27T13:22:57.382Z,4.18
2022-08-27T13:25:31.029Z,4.18
2022-08-27T13:28:08.253Z,3.97
2022-08-27T13:30:45.228Z,4.68
2022-08-27T13:33:19.350Z,3.08
2022-08-27T13:35:49.217Z,3.25
2022-08-27T13:38:20.559Z,5.25
2022-08-27T13:41:01.170Z,4.78
2022-08-27T13:43:38.636Z,3.55
2022-08-27T13:46:16.403Z,4.85
2022-08-27T13:48:48.461Z,4.55
2022-08-27T13:51:18.816Z,5.68
2022-08-27T13:54:04.624Z,3.60
2022-08-27T13:56:37.407Z,4.18
2022-08-27T13:59:15.072Z,3.65
2022-08-27T14:01:58.737Z,3.90
2022-08-27T14:04:30.626Z,5.25
2022-08-27T14:07:00.405Z,4.18
2022-08-27T14:09:32.259Z,3.75
2022-08-27T14:12:03.990Z,4.72
2022-08-27T14:14:39.058Z,3.05
2022-08-27T14:17:29.083Z,2.85
2022-08-27T14:20:04.423Z,5.03
2022-08-27T14:22:35.761Z,5.68
2022-08-27T14:25:05.725Z,4.70
2022-08-27T14:27:38.186Z,5.97
2022-08-27T14:30:10.858Z,3.80
2022-08-27T14:32:44.270Z,4.07
2022-08-27T14:35:15.198Z,3.10
2022-08-27T14:37:55.926Z,3.45
2022-08-27T14:40:25.854Z,5.50
2022-08-27T14:42:56.289Z,6.07
2022-08-27T14:45:26.155Z,5.15
2022-08-27T14:48:02.161Z,6.50
2022-08-27T14:50:32.439Z,4.97
2022-08-27T14:53:02.230Z,6.63
2022-08-27T14:55:32.030Z,5.53
2022-08-27T14:58:02.211Z,4.97
2022-08-27T15:00:32.222Z,3.92
2022-08-27T15:03:04.647Z,3.33
2022-08-27T15:05:34.457Z,3.83
2022-08-27T15:08:04.576Z,4.95
2022-08-27T15:10:34.934Z,4.63
2022-08-27T15:13:05.540Z,5.43
2022-08-27T15:15:35.347Z,4.93
2022-08-27T15:18:08.930Z,5.15
2022-08-27T15:20:39.183Z,5.70
2022-08-27T15:23:09.067Z,9.48
2022-08-27T15:25:38.815Z,3.42
2022-08-27T15:28:09.059Z,6.72
2022-08-27T15:30:38.823Z,3.53
2022-08-27T15:33:11.421Z,4.90
2022-08-27T15:35:41.260Z,8.05
2022-08-27T15:38:11.203Z,6.15
2022-08-27T15:40:41.273Z,5.85
2022-08-27T15:43:13.255Z,7.15
2022-08-27T15:45:43.151Z,5.05
2022-08-27T15:48:15.494Z,5.68
2022-08-27T15:50:45.991Z,7.93
2022-08-27T15:53:15.918Z,7.65
2022-08-27T15:55:47.705Z,9.65
2022-08-27T15:58:17.456Z,10.35
2022-08-27T16:00:48.696Z,7.82
2022-08-27T16:03:35.556Z,8.02
2022-08-27T16:06:06.525Z,7.25
2022-08-27T16:08:39.178Z,8.10
2022-08-27T16:11:12.963Z,7.07
2022-08-27T16:13:43.048Z,9.50
2022-08-27T16:16:13.912Z,11.15
2022-08-27T16:18:46.641Z,8.07
2022-08-27T16:21:16.343Z,8.00
2022-08-27T16:23:46.091Z,6.80
2022-08-27T16:26:16.640Z,6.30
2022-08-27T16:28:46.409Z,7.07
2022-08-27T16:31:16.665Z,8.13
2022-08-27T16:33:49.709Z,7.60
2022-08-27T16:36:19.616Z,7.78
2022-08-27T16:38:50.570Z,9.05
2022-08-27T16:41:21.519Z,9.63
2022-08-27T16:43:51.631Z,9.73
2022-08-27T16:46:21.466Z,9.73
2022-08-27T16:49:06.405Z,9.02
2022-08-27T16:51:38.197Z,8.45
2022-08-27T16:54:09.334Z,10.07
2022-08-27T16:56:40.248Z,10.18
2022-08-27T16:59:13.146Z,6.60
2022-08-27T17:01:43.822Z,7.93
2022-08-27T17:04:26.528Z,9.63
2022-08-27T17:07:00.116Z,5.72
2022-08-27T17:09:29.845Z,6.63
2022-08-27T17:12:05.353Z,8.68
2022-08-27T17:14:37.963Z,7.57
2022-08-27T17:17:09.578Z,8.95
2022-08-27T17:19:42.154Z,7.45
2022-08-27T17:22:12.149Z,6.47
2022-08-27T17:24:41.868Z,5.90
2022-08-27T17:27:11.984Z,7.70
2022-08-27T17:29:41.837Z,7.18
2022-08-27T17:32:12.283Z,7.13
2022-08-27T17:34:44.723Z,8.40
2022-08-27T17:37:14.583Z,7.18
2022-08-27T17:39:46.904Z,7.97
2022-08-27T17:42:16.807Z,8.30
2022-08-27T17:44:46.616Z,8.40
2022-08-27T17:47:16.367Z,9.93
2022-08-27T17:49:49.168Z,9.38
2022-08-27T17:52:19.024Z,8.07
2022-08-27T17:54:51.172Z,6.53
2022-08-27T17:57:23.691Z,6.68
2022-08-27T17:59:54.569Z,9.93
2022-08-27T18:02:27.808Z,5.82
2022-08-27T18:05:00.215Z,7.63
2022-08-27T18:07:30.675Z,8.00
2022-08-27T18:10:00.523Z,6.65
2022-08-27T18:12:30.807Z,8.98
2022-08-27T18:15:06.316Z,5.88
2022-08-27T18:17:36.279Z,5.85
2022-08-27T18:20:12.892Z,5.45
2022-08-27T18:22:48.198Z,6.05
2022-08-27T18:25:20.030Z,6.57
2022-08-27T18:27:52.773Z,6.40
2022-08-27T18:30:23.096Z,5.57
2022-08-27T18:32:52.923Z,5.00
2022-08-27T18:35:28.661Z,5.63
2022-08-27T18:37:59.199Z,5.60
2022-08-27T18:40:33.239Z,7.70
2022-08-27T18:43:03.021Z,6.00
2022-08-27T18:45:34.874Z,2.85
2022-08-27T18:48:06.172Z,6.63
2022-08-27T18:50:38.655Z,6.80
2022-08-27T18:53:08.491Z,5.70
2022-08-27T18:55:38.196Z,3.72
2022-08-27T18:58:07.971Z,10.93
2022-08-27T19:00:38.089Z,4.40
2022-08-27T19:03:08.067Z,4.78
2022-08-27T19:05:40.593Z,5.85
2022-08-27T19:08:13.160Z,6.90
2022-08-27T19:10:43.058Z,7.25
2022-08-27T19:13:12.773Z,4.10
2022-08-27T19:15:46.210Z,4.88
2022-08-27T19:18:15.961Z,5.32
2022-08-27T19:20:48.339Z,8.93
2022-08-27T19:23:22.197Z,3.78
2022-08-27T19:25:52.764Z,3.80
2022-08-27T19:28:27.777Z,8.65
2022-08-27T19:30:57.692Z,6.68
2022-08-27T19:33:27.450Z,6.15
2022-08-27T19:36:00.497Z,5.40
2022-08-27T19:38:34.228Z,8.40
2022-08-27T19:41:05.060Z,9.32
2022-08-27T19:43:35.231Z,5.57
2022-08-27T19:46:07.606Z,6.35
2022-08-27T19:48:37.447Z,4.97
2022-08-27T19:51:10.171Z,5.53
2022-08-27T19:53:39.978Z,6.13
2022-08-27T19:56:10.833Z,9.57
2022-08-27T19:58:40.551Z,7.28
2022-08-27T20:01:11.613Z,5.07
2022-08-27T20:03:41.814Z,6.43
2022-08-27T20:06:14.678Z,6.20
2022-08-27T20:08:44.603Z,5.95
2022-08-27T20:11:17.987Z,7.28
2022-08-27T20:13:52.120Z,6.60
2022-08-27T20:16:21.916Z,5.57
2022-08-27T20:18:51.728Z,3.40
2022-08-27T20:21:24.097Z,4.70
2022-08-27T20:23:54.000Z,3.50
2022-08-27T20:26:24.856Z,5.07
2022-08-27T20:28:55.335Z,6.05
2022-08-27T20:31:25.143Z,5.10
2022-08-27T20:33:55.492Z,5.07
2022-08-27T20:36:31.736Z,6.47
2022-08-27T20:39:02.313Z,6.65
2022-08-27T20:41:32.128Z,5.25
2022-08-27T20:44:02.274Z,6.28
2022-08-27T20:46:34.581Z,7.03
2022-08-27T20:49:04.660Z,8.50
2022-08-27T20:52:02.196Z,5.88
2022-08-27T20:54:27.486Z,7.28
2022-08-27T20:56:57.194Z,9.25
2022-08-27T20:59:39.349Z,6.47
2022-08-27T21:02:11.542Z,5.45
2022-08-27T21:04:42.693Z,6.07
2022-08-27T21:07:15.324Z,5.13
2022-08-27T21:09:56.838Z,5.88
2022-08-27T21:12:27.899Z,6.18
2022-08-27T21:14:58.227Z,5.65
2022-08-27T21:17:29.240Z,7.70
2022-08-27T21:19:59.224Z,6.88
2022-08-27T21:22:31.596Z,3.85
2022-08-27T21:25:01.336Z,7.35
2022-08-27T21:27:31.123Z,8.80
2022-08-27T21:30:01.316Z,7.65
2022-08-27T21:32:31.096Z,5.05
2022-08-27T21:35:00.823Z,5.95
2022-08-27T21:37:33.232Z,8.20
2022-08-27T21:40:03.146Z,4.90
2022-08-27T21:42:32.994Z,10.25
2022-08-27T21:45:02.753Z,5.80
2022-08-27T21:47:32.549Z,5.75
2022-08-27T21:50:02.305Z,5.15
2022-08-27T21:52:34.895Z,6.43
2022-08-27T21:55:04.837Z,6.57
2022-08-27T21:57:34.631Z,9.75
2022-08-27T22:00:12.502Z,6.75
2022-08-27T22:02:42.232Z,6.90
2022-08-27T22:05:12.800Z,6.40
2022-08-27T22:07:45.112Z,8.20
2022-08-27T22:10:15.188Z,7.75
2022-08-27T22:12:44.893Z,7.65
2022-08-27T22:15:14.760Z,6.78
2022-08-27T22:17:48.302Z,4.53
2022-08-27T22:20:21.233Z,6.82
2022-08-27T22:22:54.011Z,7.32
2022-08-27T22:25:23.806Z,4.53
2022-08-27T22:27:53.571Z,6.38
2022-08-27T22:30:23.925Z,9.63
2022-08-27T22:32:54.476Z,7.68
2022-08-27T22:35:24.816Z,4.35
2022-08-27T22:37:59.991Z,6.95
2022-08-27T22:40:32.146Z,7.40
2022-08-27T22:43:02.391Z,6.43
2022-08-27T22:45:32.325Z,4.40
2022-08-27T22:48:02.037Z,5.50
2022-08-27T22:50:31.749Z,7.70
2022-08-27T22:53:04.338Z,4.53
2022-08-27T22:55:34.164Z,5.00
2022-08-27T22:58:04.200Z,5.40
2022-08-27T23:00:36.867Z,7.60
2022-08-27T23:03:10.282Z,8.20
2022-08-27T23:05:41.973Z,5.30
2022-08-27T23:08:15.260Z,7.20
2022-08-27T23:10:46.930Z,5.03
2022-08-27T23:13:16.707Z,6.03
2022-08-27T23:15:46.548Z,6.15
2022-08-27T23:18:16.733Z,7.43
2022-08-27T23:20:46.450Z,6.35
2022-08-27T23:23:19.991Z,10.25
2022-08-27T23:26:02.417Z,6.15
2022-08-27T23:28:32.324Z,8.32
2022-08-27T23:31:02.504Z,6.22
2022-08-27T23:33:32.290Z,9.35
2022-08-27T23:36:02.008Z,8.50
2022-08-27T23:38:34.705Z,5.75
2022-08-27T23:41:05.852Z,6.65
2022-08-27T23:43:35.722Z,6.82
2022-08-27T23:46:05.472Z,6.78
2022-08-27T23:48:35.271Z,6.10
2022-08-27T23:51:05.515Z,4.88
2022-08-27T23:53:38.434Z,6.97
2022-08-27T23:56:09.360Z,6.63
2022-08-27T23:58:39.178Z,5.93
